Time;durP1;ratioP1;P1;durP2;ratioP2;P2;SDS_P1;SDS_P2;PMS_P1;PMS_P2;Temp;Humidity;BMP_temperature;BMP_pressure;BME280_temperature;BME280_humidity;BME280_pressure;Samples;Min_cycle;Max_cycle;Signal;HPM_P1;HPM_P2
2022/11/09 00:01:19;;;;;;;7.80;2.33;;;15.50;99.90;;;;;;4997243;28;20289;-68
2022/11/09 00:03:45;;;;;;;8.40;2.33;;;15.40;99.90;;;;;;4996698;28;20233;-68
2022/11/09 00:06:11;;;;;;;7.80;2.20;;;15.40;99.90;;;;;;4996961;28;20175;-67
2022/11/09 00:08:40;;;;;;;5.37;2.10;;;15.40;99.90;;;;;;4996962;28;20183;-69
2022/11/09 00:11:07;;;;;;;5.70;1.93;;;15.40;99.90;;;;;;4996981;28;20251;-68
2022/11/09 00:13:37;;;;;;;4.90;1.90;;;15.40;99.90;;;;;;4996684;28;20195;-68
2022/11/09 00:16:05;;;;;;;6.47;1.80;;;15.40;99.90;;;;;;4996890;28;20184;-67
2022/11/09 00:18:31;;;;;;;9.77;2.30;;;15.30;99.90;;;;;;4996411;28;20737;-68
2022/11/09 00:20:57;;;;;;;4.67;2.03;;;15.30;99.90;;;;;;4996720;28;20272;-67
2022/11/09 00:23:22;;;;;;;7.17;2.37;;;15.30;99.90;;;;;;4996384;28;20336;-68
2022/11/09 00:25:48;;;;;;;6.17;1.90;;;15.20;99.90;;;;;;4995477;28;20167;-68
2022/11/09 00:28:14;;;;;;;5.50;2.10;;;15.30;99.90;;;;;;4996525;28;20171;-68
2022/11/09 00:30:40;;;;;;;5.57;2.00;;;15.20;99.90;;;;;;4996855;28;20527;-68
2022/11/09 00:33:07;;;;;;;4.97;2.27;;;15.20;99.90;;;;;;4995933;28;20219;-67
2022/11/09 00:35:39;;;;;;;8.17;2.30;;;15.20;99.90;;;;;;4996320;28;20175;-68
2022/11/09 00:38:04;;;;;;;6.13;2.20;;;15.10;99.90;;;;;;4996331;28;20171;-68
2022/11/09 00:40:30;;;;;;;5.53;2.23;;;15.10;99.90;;;;;;4996532;28;20172;-68
2022/11/09 00:42:56;;;;;;;7.83;1.90;;;15.00;99.90;;;;;;4996222;28;20701;-68
2022/11/09 00:45:21;;;;;;;11.10;2.50;;;14.90;99.90;;;;;;4996258;28;20183;-68
2022/11/09 00:47:47;;;;;;;3.43;1.90;;;14.80;99.90;;;;;;4995874;28;20209;-66
2022/11/09 00:50:12;;;;;;;4.03;1.80;;;14.80;99.90;;;;;;4996256;28;20650;-67
2022/11/09 00:52:38;;;;;;;10.57;2.47;;;14.70;99.90;;;;;;4996060;28;20201;-67
2022/11/09 00:55:04;;;;;;;7.87;2.07;;;14.70;99.90;;;;;;4996227;28;20174;-67
2022/11/09 00:57:29;;;;;;;5.47;1.80;;;14.60;99.90;;;;;;4996004;28;20168;-68
2022/11/09 00:59:55;;;;;;;10.87;2.07;;;14.60;99.90;;;;;;4995878;28;20186;-68
2022/11/09 01:02:21;;;;;;;7.87;2.13;;;14.50;99.90;;;;;;4995532;28;20171;-67
2022/11/09 01:04:46;;;;;;;9.97;2.27;;;14.50;99.90;;;;;;4996038;28;20694;-67
2022/11/09 01:07:12;;;;;;;9.40;2.20;;;14.60;99.90;;;;;;4995941;28;20174;-68
2022/11/09 01:09:38;;;;;;;6.20;2.53;;;14.50;99.90;;;;;;4994696;28;20540;-68
2022/11/09 01:12:03;;;;;;;6.43;2.50;;;14.50;99.90;;;;;;4995778;28;20372;-68
2022/11/09 01:14:29;;;;;;;8.80;2.20;;;14.40;99.90;;;;;;4995787;28;20183;-68
2022/11/09 01:16:57;;;;;;;6.63;2.30;;;14.50;99.90;;;;;;4994170;28;20182;-68
2022/11/09 01:19:23;;;;;;;8.73;2.30;;;14.50;99.90;;;;;;4995621;28;20259;-68
2022/11/09 01:21:48;;;;;;;5.87;2.10;;;14.50;99.90;;;;;;4995811;28;20263;-68
2022/11/09 01:24:19;;;;;;;9.27;2.37;;;14.40;99.90;;;;;;4995652;28;20767;-68
2022/11/09 01:26:44;;;;;;;7.30;1.97;;;14.30;99.90;;;;;;4995636;28;20201;-67
2022/11/09 01:29:10;;;;;;;9.90;2.50;;;14.40;99.90;;;;;;4994324;28;20660;-68
2022/11/09 01:31:35;;;;;;;10.13;2.43;;;14.30;99.90;;;;;;4993609;28;20198;-68
2022/11/09 01:34:01;;;;;;;6.53;2.07;;;14.30;99.90;;;;;;4995299;28;20223;-67
2022/11/09 01:36:27;;;;;;;6.33;2.07;;;14.40;99.90;;;;;;4995349;28;20631;-68
2022/11/09 01:38:52;;;;;;;8.33;2.50;;;14.40;99.90;;;;;;4995306;28;20586;-68
2022/11/09 01:41:22;;;;;;;10.40;2.77;;;14.40;99.90;;;;;;4995235;28;20667;-67
2022/11/09 01:44:02;;;;;;;9.47;3.30;;;14.40;99.90;;;;;;4995067;28;20286;-67
2022/11/09 01:46:53;;;;;;;11.43;3.97;;;14.40;99.90;;;;;;4994963;28;20171;-67
2022/11/09 01:49:27;;;;;;;10.37;4.00;;;14.40;99.90;;;;;;4993223;28;20567;-68
2022/11/09 01:52:14;;;;;;;11.30;3.87;;;14.40;99.90;;;;;;4993775;28;20182;-66
2022/11/09 01:54:48;;;;;;;14.40;4.40;;;14.40;99.90;;;;;;4995399;28;20175;-67
2022/11/09 01:57:19;;;;;;;12.03;4.23;;;14.40;99.90;;;;;;4995022;28;20174;-67
2022/11/09 01:59:56;;;;;;;8.93;4.00;;;14.50;99.90;;;;;;4994583;28;20168;-68
2022/11/09 02:02:23;;;;;;;12.90;4.57;;;14.40;99.90;;;;;;4994979;28;20163;-67
2022/11/09 02:04:54;;;;;;;11.40;4.40;;;14.40;99.90;;;;;;4994893;28;20277;-67
2022/11/09 02:07:21;;;;;;;11.20;4.03;;;14.40;99.90;;;;;;4994741;28;20168;-68
2022/11/09 02:10:19;;;;;;;9.10;3.67;;;14.50;99.90;;;;;;4994619;28;20306;-68
2022/11/09 02:12:45;;;;;;;12.60;4.03;;;14.40;99.90;;;;;;4994656;28;20771;-68
2022/11/09 02:15:12;;;;;;;13.13;3.97;;;14.40;99.90;;;;;;4993095;28;20225;-69
2022/11/09 02:17:39;;;;;;;10.33;3.50;;;14.40;99.90;;;;;;4994496;28;20179;-67
2022/11/09 02:20:15;;;;;;;8.63;3.50;;;14.40;99.90;;;;;;4994090;28;20167;-68
2022/11/09 02:22:41;;;;;;;9.53;3.37;;;14.30;99.90;;;;;;4994627;28;20190;-68
2022/11/09 02:25:08;;;;;;;9.77;3.40;;;14.30;99.90;;;;;;4994508;28;20215;-68
2022/11/09 02:27:35;;;;;;;8.60;2.80;;;14.30;99.90;;;;;;4994406;28;20179;-67
2022/11/09 02:30:03;;;;;;;10.33;3.40;;;14.20;99.90;;;;;;4994067;28;20639;-69
2022/11/09 02:32:30;;;;;;;7.97;2.93;;;14.20;99.90;;;;;;4994159;28;20187;-68
2022/11/09 02:34:56;;;;;;;8.30;3.57;;;14.20;99.90;;;;;;4994109;28;20765;-67
2022/11/09 02:37:32;;;;;;;15.57;4.00;;;14.20;99.90;;;;;;4994174;28;20179;-67
2022/11/09 02:39:59;;;;;;;10.30;3.43;;;14.10;99.90;;;;;;4994375;28;20246;-67
2022/11/09 02:42:27;;;;;;;10.93;4.00;;;14.20;99.90;;;;;;4993831;28;20184;-68
2022/11/09 02:45:02;;;;;;;13.37;3.80;;;14.20;99.90;;;;;;4991919;28;20222;-66
2022/11/09 02:47:28;;;;;;;11.63;4.00;;;14.20;99.90;;;;;;4994265;28;20196;-67
2022/11/09 02:49:56;;;;;;;17.20;4.63;;;14.20;99.90;;;;;;4994079;28;20230;-68
2022/11/09 02:52:22;;;;;;;11.00;4.40;;;14.20;99.90;;;;;;4994100;28;20214;-66
2022/11/09 02:54:48;;;;;;;11.27;4.43;;;14.20;99.90;;;;;;4994105;28;20534;-68
2022/11/09 02:57:16;;;;;;;11.43;4.60;;;14.10;99.90;;;;;;4993656;28;20175;-67
2022/11/09 02:59:42;;;;;;;11.23;4.97;;;14.00;99.90;;;;;;4992584;28;20211;-67
2022/11/09 03:02:08;;;;;;;15.10;4.47;;;14.00;99.90;;;;;;4993801;28;20636;-67
2022/11/09 03:04:34;;;;;;;12.83;4.77;;;14.00;99.90;;;;;;4993747;28;20249;-67
2022/11/09 03:06:59;;;;;;;10.83;3.57;;;13.90;99.90;;;;;;4993910;28;20179;-67
2022/11/09 03:09:25;;;;;;;12.03;3.90;;;13.90;99.90;;;;;;4993885;28;20262;-67
2022/11/09 03:11:51;;;;;;;12.47;3.60;;;13.90;99.90;;;;;;4993469;28;20210;-67
2022/11/09 03:14:16;;;;;;;10.07;3.43;;;13.90;99.90;;;;;;4993720;28;20175;-68
2022/11/09 03:16:42;;;;;;;7.70;3.27;;;13.90;99.90;;;;;;4993749;28;20541;-67
2022/11/09 03:19:07;;;;;;;7.70;2.83;;;13.90;99.90;;;;;;4993694;28;20705;-67
2022/11/09 03:21:33;;;;;;;11.23;3.07;;;13.90;99.90;;;;;;4993688;28;20186;-68
2022/11/09 03:23:59;;;;;;;11.23;3.20;;;13.80;99.90;;;;;;4993589;28;20307;-67
2022/11/09 03:26:25;;;;;;;9.40;2.47;;;13.80;99.90;;;;;;4993076;28;20323;-67
2022/11/09 03:28:52;;;;;;;11.23;2.70;;;13.80;99.90;;;;;;4993500;28;20179;-68
2022/11/09 03:31:18;;;;;;;6.57;2.60;;;13.90;99.90;;;;;;4993846;28;20635;-67
2022/11/09 03:33:44;;;;;;;7.20;2.70;;;13.90;99.90;;;;;;4997307;28;20277;-68
2022/11/09 03:36:09;;;;;;;9.60;2.63;;;13.90;99.90;;;;;;4997690;28;20179;-67
2022/11/09 03:38:35;;;;;;;10.27;2.90;;;13.90;99.90;;;;;;4997419;28;20568;-67
2022/11/09 03:41:01;;;;;;;9.30;3.03;;;13.90;99.90;;;;;;4997187;28;20198;-69
2022/11/09 03:43:27;;;;;;;5.30;2.50;;;13.90;99.90;;;;;;4997413;28;20207;-68
2022/11/09 03:45:53;;;;;;;8.73;2.33;;;13.90;99.90;;;;;;4997354;28;20171;-68
2022/11/09 03:48:19;;;;;;;10.80;2.63;;;13.90;99.90;;;;;;4997279;28;20171;-68
2022/11/09 03:50:45;;;;;;;8.27;2.97;;;13.90;99.90;;;;;;4997405;28;20504;-68
2022/11/09 03:53:11;;;;;;;7.77;2.50;;;13.80;99.90;;;;;;4997095;28;20202;-68
2022/11/09 03:55:37;;;;;;;9.37;2.50;;;13.80;99.90;;;;;;4996792;28;20171;-68
2022/11/09 03:58:04;;;;;;;6.20;2.77;;;13.80;99.90;;;;;;4996061;28;20175;-68
2022/11/09 04:00:31;;;;;;;10.40;2.57;;;13.70;99.90;;;;;;4997217;28;20172;-67
2022/11/09 04:02:56;;;;;;;8.40;2.80;;;13.60;99.90;;;;;;4996945;28;20187;-68
2022/11/09 04:05:22;;;;;;;5.63;2.37;;;13.60;99.90;;;;;;4997297;28;20187;-67
2022/11/09 04:07:51;;;;;;;9.23;2.80;;;13.60;99.90;;;;;;4996807;28;20178;-67
2022/11/09 04:10:17;;;;;;;12.00;2.70;;;13.50;99.90;;;;;;4996623;28;20225;-67
2022/11/09 04:12:46;;;;;;;16.60;2.80;;;13.40;99.90;;;;;;4996789;28;20187;-68
2022/11/09 04:15:12;;;;;;;9.23;2.80;;;13.40;99.90;;;;;;4997081;28;20219;-68
2022/11/09 04:17:38;;;;;;;8.87;2.77;;;13.40;99.90;;;;;;4996804;28;20306;-68
2022/11/09 04:20:06;;;;;;;7.73;2.67;;;13.50;99.90;;;;;;4997030;28;20183;-68
2022/11/09 04:22:31;;;;;;;10.83;2.63;;;13.40;99.90;;;;;;4996526;28;20262;-67
2022/11/09 04:24:57;;;;;;;11.40;2.77;;;13.40;99.90;;;;;;4996404;28;20247;-67
2022/11/09 04:27:22;;;;;;;9.93;2.80;;;13.40;99.90;;;;;;4996729;28;20669;-67
2022/11/09 04:29:48;;;;;;;11.57;2.43;;;13.30;99.90;;;;;;4996698;28;20178;-67
2022/11/09 04:32:17;;;;;;;8.10;2.77;;;13.30;99.90;;;;;;4996348;28;20194;-67
2022/11/09 04:34:42;;;;;;;9.67;2.70;;;13.30;99.90;;;;;;4996222;28;20227;-67
2022/11/09 04:37:09;;;;;;;9.17;2.47;;;13.30;99.90;;;;;;4996129;28;20640;-68
2022/11/09 04:39:34;;;;;;;8.87;2.60;;;13.20;99.90;;;;;;4995983;28;20211;-67
2022/11/09 04:42:00;;;;;;;8.27;2.67;;;13.20;99.90;;;;;;4996172;28;20175;-66
2022/11/09 04:44:26;;;;;;;6.10;2.33;;;13.20;99.90;;;;;;4995846;28;20210;-67
2022/11/09 04:46:51;;;;;;;9.57;2.87;;;13.20;99.90;;;;;;4996160;28;20186;-67
2022/11/09 04:49:17;;;;;;;10.83;2.80;;;13.20;99.90;;;;;;4996046;28;20183;-67
2022/11/09 04:51:46;;;;;;;6.30;2.40;;;13.30;99.90;;;;;;4995953;28;20168;-67
2022/11/09 04:54:12;;;;;;;10.00;2.60;;;13.30;99.90;;;;;;4995621;28;20182;-67
2022/11/09 04:56:40;;;;;;;6.00;2.30;;;13.20;99.90;;;;;;4995996;28;20183;-67
2022/11/09 04:59:06;;;;;;;8.80;2.40;;;13.20;99.90;;;;;;4996128;28;20204;-67
2022/11/09 05:01:31;;;;;;;9.07;2.53;;;13.20;99.90;;;;;;4995894;28;20186;-67
2022/11/09 05:03:57;;;;;;;9.97;2.50;;;13.20;99.90;;;;;;4995709;28;20298;-68
2022/11/09 05:06:31;;;;;;;12.93;2.43;;;13.20;99.90;;;;;;4995775;28;20657;-68
2022/11/09 05:09:00;;;;;;;7.53;2.53;;;13.20;99.90;;;;;;4995032;28;20171;-68
2022/11/09 05:11:26;;;;;;;8.83;2.67;;;13.20;99.90;;;;;;4995342;28;20184;-67
2022/11/09 05:13:51;;;;;;;6.10;2.30;;;13.20;99.90;;;;;;4995786;28;20254;-68
2022/11/09 05:16:20;;;;;;;10.47;2.73;;;13.20;99.90;;;;;;4995674;28;20247;-67
2022/11/09 05:18:46;;;;;;;10.60;2.80;;;13.20;99.90;;;;;;4995424;28;20263;-68
2022/11/09 05:21:12;;;;;;;12.17;2.77;;;13.20;99.90;;;;;;4995544;28;20270;-68
2022/11/09 05:26:22;;;;;;;13.20;2.70;;;13.10;99.90;;;;;;4995561;28;20219;-67
2022/11/09 05:28:48;;;;;;;9.47;2.63;;;13.10;99.90;;;;;;4995324;28;20559;-68
2022/11/09 05:31:13;;;;;;;9.53;2.57;;;13.00;99.90;;;;;;4995061;28;20187;-68
2022/11/09 05:33:39;;;;;;;7.07;2.60;;;13.10;99.90;;;;;;4995067;28;20227;-69
2022/11/09 05:36:05;;;;;;;10.47;2.80;;;13.00;99.90;;;;;;4993855;28;20213;-66
2022/11/09 05:38:31;;;;;;;7.07;2.43;;;13.00;99.90;;;;;;4995030;28;20175;-67
2022/11/09 05:40:57;;;;;;;8.13;2.60;;;13.00;99.90;;;;;;4995111;28;20167;-67
2022/11/09 05:43:22;;;;;;;10.67;3.20;;;13.00;99.90;;;;;;4994916;28;20253;-67
2022/11/09 05:45:48;;;;;;;10.43;2.87;;;13.00;99.90;;;;;;4995049;28;20233;-67
2022/11/09 05:48:16;;;;;;;8.33;2.97;;;13.10;99.90;;;;;;4994971;28;20215;-68
2022/11/09 05:50:42;;;;;;;6.47;3.10;;;13.00;99.90;;;;;;4994904;28;20167;-68
2022/11/09 05:53:08;;;;;;;6.80;3.03;;;13.00;99.90;;;;;;4994859;28;20176;-68
2022/11/09 05:55:34;;;;;;;11.20;3.50;;;12.90;99.90;;;;;;4992831;28;20179;-67
2022/11/09 05:58:00;;;;;;;12.17;3.47;;;13.00;99.90;;;;;;4994568;28;20179;-67
2022/11/09 06:00:26;;;;;;;10.60;3.47;;;13.00;99.90;;;;;;4994394;28;20175;-68
2022/11/09 06:02:52;;;;;;;11.60;3.50;;;12.90;99.90;;;;;;4994594;28;20266;-68
2022/11/09 06:05:19;;;;;;;7.97;3.23;;;12.90;99.90;;;;;;4992445;28;20766;-68
2022/11/09 06:07:45;;;;;;;10.07;3.60;;;12.90;99.90;;;;;;4994481;28;20171;-68
2022/11/09 06:10:10;;;;;;;10.70;3.63;;;12.80;99.90;;;;;;4994802;28;20226;-68
2022/11/09 06:12:36;;;;;;;8.80;3.70;;;12.80;99.90;;;;;;4994090;28;20603;-68
2022/11/09 06:15:02;;;;;;;11.77;3.40;;;12.80;99.90;;;;;;4994349;28;20175;-68
2022/11/09 06:17:28;;;;;;;11.50;4.13;;;12.80;99.90;;;;;;4994557;28;20187;-68
2022/11/09 06:19:53;;;;;;;11.17;3.90;;;12.80;99.90;;;;;;4993894;28;20546;-68
2022/11/09 06:22:19;;;;;;;16.00;4.50;;;12.80;99.90;;;;;;4994219;28;20171;-68
2022/11/09 06:24:44;;;;;;;10.23;4.07;;;12.70;99.90;;;;;;4994208;28;20215;-68
2022/11/09 06:27:10;;;;;;;11.87;3.83;;;12.80;99.90;;;;;;4994109;28;20531;-68
2022/11/09 06:29:35;;;;;;;11.07;3.17;;;12.80;99.90;;;;;;4993878;28;20530;-67
2022/11/09 06:32:01;;;;;;;11.47;3.43;;;12.80;99.90;;;;;;4993702;28;20175;-68
2022/11/09 06:34:29;;;;;;;11.00;3.57;;;12.80;99.90;;;;;;4993477;28;20227;-68
2022/11/09 06:36:54;;;;;;;14.27;3.70;;;12.80;99.90;;;;;;4994016;28;20245;-68
2022/11/09 06:39:23;;;;;;;10.07;3.90;;;12.80;99.90;;;;;;4993233;28;20179;-68
2022/11/09 06:41:48;;;;;;;10.03;4.03;;;12.80;99.90;;;;;;4993816;28;20270;-67
2022/11/09 06:44:14;;;;;;;10.57;3.83;;;12.80;99.90;;;;;;4992890;28;20310;-68
2022/11/09 06:46:40;;;;;;;13.00;4.10;;;12.80;99.90;;;;;;4993566;28;20168;-68
2022/11/09 06:49:05;;;;;;;11.90;4.10;;;12.80;99.90;;;;;;4992810;28;20178;-68
2022/11/09 06:51:31;;;;;;;12.07;4.07;;;12.70;99.90;;;;;;4993728;28;20683;-68
2022/11/09 06:53:57;;;;;;;12.07;4.03;;;12.70;99.90;;;;;;4993679;28;20171;-69
2022/11/09 06:56:22;;;;;;;12.80;3.37;;;12.70;99.90;;;;;;4993281;28;20193;-68
2022/11/09 06:58:48;;;;;;;12.23;3.47;;;12.70;99.90;;;;;;4992583;28;20207;-68
2022/11/09 07:01:20;;;;;;;11.10;3.70;;;12.70;99.90;;;;;;4992046;28;20693;-69
2022/11/09 07:03:46;;;;;;;8.47;2.97;;;12.70;99.90;;;;;;4992579;28;20590;-69
2022/11/09 07:06:14;;;;;;;11.70;3.27;;;12.80;99.90;;;;;;4993521;28;20193;-68
2022/11/09 07:08:40;;;;;;;9.47;3.00;;;12.80;99.90;;;;;;4993544;28;20266;-67
2022/11/09 07:11:12;;;;;;;8.20;3.20;;;12.80;99.90;;;;;;4992877;28;20254;-68
2022/11/09 07:13:38;;;;;;;14.67;3.70;;;12.90;99.90;;;;;;4993053;28;20199;-68
2022/11/09 07:16:07;;;;;;;7.80;2.90;;;12.90;99.90;;;;;;4993370;28;20206;-68
2022/11/09 07:18:33;;;;;;;12.77;3.73;;;13.10;99.90;;;;;;4993180;28;20172;-68
2022/11/09 07:20:59;;;;;;;8.67;3.30;;;13.20;99.90;;;;;;4993260;28;20538;-68
2022/11/09 07:23:27;;;;;;;9.17;4.07;;;13.50;99.90;;;;;;4992672;28;20207;-68
2022/11/09 07:25:53;;;;;;;13.57;4.93;;;13.50;99.90;;;;;;4992969;28;20262;-68
2022/11/09 07:28:18;;;;;;;8.73;3.50;;;13.60;99.90;;;;;;4991740;28;20596;-68
2022/11/09 07:30:44;;;;;;;9.67;3.77;;;13.60;99.90;;;;;;4993513;28;20179;-69
2022/11/09 07:33:16;;;;;;;6.57;2.87;;;13.80;99.90;;;;;;4992310;28;20616;-68
2022/11/09 07:35:43;;;;;;;7.33;3.00;;;13.80;99.90;;;;;;4992953;28;20683;-69
2022/11/09 07:38:09;;;;;;;9.27;2.60;;;13.90;99.90;;;;;;4992619;28;20171;-67
2022/11/09 07:40:36;;;;;;;6.97;2.33;;;13.90;99.90;;;;;;4992648;28;20179;-68
2022/11/09 07:43:04;;;;;;;9.17;2.77;;;13.90;99.90;;;;;;4992838;28;20627;-69
2022/11/09 07:45:31;;;;;;;12.57;3.27;;;14.00;99.90;;;;;;4992841;28;20286;-68
2022/11/09 07:47:58;;;;;;;7.80;2.83;;;14.00;99.90;;;;;;4992808;28;20178;-69
2022/11/09 07:50:25;;;;;;;11.63;2.90;;;14.00;99.90;;;;;;4993064;28;20202;-68
2022/11/09 07:52:51;;;;;;;7.70;3.00;;;14.10;99.90;;;;;;4993019;28;20167;-67
2022/11/09 07:55:16;;;;;;;8.10;2.97;;;14.20;99.90;;;;;;4992863;28;20239;-69
2022/11/09 07:57:43;;;;;;;6.27;2.70;;;14.20;99.90;;;;;;4992664;28;20179;-69
2022/11/09 08:00:10;;;;;;;5.30;3.00;;;14.40;99.90;;;;;;4993054;28;20168;-68
2022/11/09 08:02:36;;;;;;;7.33;2.80;;;14.80;99.90;;;;;;4991911;28;20175;-69
2022/11/09 08:05:04;;;;;;;6.77;2.67;;;15.30;99.90;;;;;;4982165;28;20727;-68
2022/11/09 08:07:33;;;;;;;5.93;2.97;;;16.00;99.90;;;;;;4992097;28;20179;-69
2022/11/09 08:09:59;;;;;;;7.47;2.60;;;16.90;99.90;;;;;;4992619;28;20183;-68
2022/11/09 08:12:24;;;;;;;7.73;2.73;;;17.40;99.90;;;;;;4992821;28;20769;-69
2022/11/09 08:14:50;;;;;;;9.90;3.07;;;17.70;99.90;;;;;;4993047;28;20631;-68
2022/11/09 08:17:15;;;;;;;7.93;2.40;;;17.50;99.90;;;;;;4991076;28;20180;-68
2022/11/09 08:19:44;;;;;;;8.40;2.50;;;17.60;99.90;;;;;;4996440;28;20262;-69
2022/11/09 08:22:09;;;;;;;7.35;2.45;;;18.30;99.90;;;;;;4996003;28;20167;-69
2022/11/09 08:24:35;;;;;;;6.68;2.80;;;18.70;99.90;;;;;;4996180;28;20256;-69
2022/11/09 08:27:00;;;;;;;8.05;2.55;;;18.90;99.90;;;;;;4995004;28;20179;-69
2022/11/09 08:29:26;;;;;;;5.90;2.30;;;18.90;99.90;;;;;;4994858;28;20179;-68
2022/11/09 08:31:51;;;;;;;7.47;2.42;;;18.30;99.90;;;;;;4994849;28;20666;-69
2022/11/09 08:34:17;;;;;;;6.55;2.25;;;18.10;99.90;;;;;;4996178;28;20685;-69
2022/11/09 08:36:43;;;;;;;5.68;2.50;;;18.10;99.90;;;;;;4996228;28;20654;-69
2022/11/09 08:39:10;;;;;;;7.07;2.03;;;18.10;99.90;;;;;;4995719;28;20262;-69
2022/11/09 08:41:36;;;;;;;12.95;2.85;;;17.60;99.90;;;;;;4995973;28;20179;-67
2022/11/09 08:44:01;;;;;;;8.70;3.60;;;17.70;99.90;;;;;;4996235;28;20215;-68
2022/11/09 08:46:27;;;;;;;10.75;2.55;;;18.00;99.90;;;;;;4995354;28;20177;-68
2022/11/09 08:48:53;;;;;;;9.82;3.15;;;18.10;99.90;;;;;;5013732;28;20588;-69
2022/11/09 08:51:18;;;;;;;8.52;3.00;;;18.60;99.90;;;;;;5004376;28;20669;-70
2022/11/09 08:53:44;;;;;;;6.55;2.45;;;18.70;99.90;;;;;;5008850;28;20178;-72
2022/11/09 08:56:11;;;;;;;7.70;2.47;;;18.90;99.90;;;;;;5014238;28;20592;-73
2022/11/09 08:58:38;;;;;;;6.60;2.13;;;19.10;99.90;;;;;;4999780;28;20174;-73
2022/11/09 09:01:08;;;;;;;6.25;2.10;;;19.00;99.90;;;;;;5006352;28;20172;-72
2022/11/09 09:03:33;;;;;;;7.07;2.53;;;18.40;99.90;;;;;;5007213;28;20264;-71
2022/11/09 09:06:03;;;;;;;9.70;2.50;;;18.30;99.90;;;;;;4998768;28;20643;-71
2022/11/09 09:08:29;;;;;;;7.53;2.42;;;17.90;99.90;;;;;;4981794;28;20257;-72
2022/11/09 09:10:54;;;;;;;8.52;2.33;;;17.90;99.90;;;;;;5007581;28;20206;-72
2022/11/09 09:13:21;;;;;;;4.90;2.25;;;17.90;99.90;;;;;;5005429;28;20194;-71
2022/11/09 09:15:47;;;;;;;8.65;3.38;;;18.10;99.90;;;;;;5000236;28;20191;-71
2022/11/09 09:18:13;;;;;;;8.77;2.65;;;17.70;99.90;;;;;;5009779;28;20175;-72
2022/11/09 09:20:38;;;;;;;8.75;3.70;;;17.60;99.90;;;;;;5000113;28;20175;-71
2022/11/09 09:23:04;;;;;;;7.25;3.13;;;17.70;99.90;;;;;;5006069;28;20179;-72
2022/11/09 09:25:29;;;;;;;9.57;3.10;;;18.00;99.90;;;;;;5006292;28;20182;-71
2022/11/09 09:27:55;;;;;;;8.07;2.70;;;18.40;99.90;;;;;;4998860;28;20178;-72
2022/11/09 09:30:21;;;;;;;9.27;2.88;;;18.10;99.90;;;;;;5008786;28;20536;-72
2022/11/09 09:32:46;;;;;;;8.63;2.70;;;18.20;99.90;;;;;;5000073;28;20185;-73
2022/11/09 09:35:12;;;;;;;5.40;2.85;;;18.10;99.90;;;;;;5004689;28;20643;-72
2022/11/09 09:37:38;;;;;;;10.18;2.78;;;18.20;99.90;;;;;;5003413;28;20184;-73
2022/11/09 09:40:04;;;;;;;7.47;2.90;;;18.80;99.90;;;;;;4994614;28;20205;-73
2022/11/09 09:42:36;;;;;;;7.85;2.92;;;19.40;99.90;;;;;;4980812;28;20185;-72
2022/11/09 09:45:13;;;;;;;6.50;2.30;;;19.30;99.90;;;;;;5005738;28;20253;-73
2022/11/09 09:48:12;;;;;;;6.07;2.28;;;19.70;99.90;;;;;;5007110;28;20170;-71
2022/11/09 09:50:49;;;;;;;6.80;2.47;;;19.70;99.90;;;;;;5009178;28;20214;-73
2022/11/09 09:53:32;;;;;;;6.60;2.20;;;19.40;99.90;;;;;;5003779;28;20212;-72
2022/11/09 09:56:15;;;;;;;9.95;2.72;;;18.80;99.90;;;;;;4998470;28;20195;-71
2022/11/09 09:58:56;;;;;;;8.38;2.00;;;18.20;99.90;;;;;;4984476;28;20185;-71
2022/11/09 10:01:26;;;;;;;9.82;2.60;;;18.20;99.90;;;;;;5002585;28;20199;-71
2022/11/09 10:03:52;;;;;;;7.63;2.15;;;17.80;99.90;;;;;;5008642;28;20267;-71
2022/11/09 10:06:39;;;;;;;8.13;2.33;;;17.20;99.90;;;;;;4997411;28;20262;-71
2022/11/09 10:09:23;;;;;;;8.80;2.50;;;16.90;99.90;;;;;;5005332;28;20265;-71
2022/11/09 10:12:05;;;;;;;9.23;2.37;;;16.70;99.90;;;;;;5006447;28;20198;-72
2022/11/09 10:14:51;;;;;;;8.23;2.10;;;16.60;99.90;;;;;;4980359;28;20174;-71
2022/11/09 10:17:44;;;;;;;5.80;2.07;;;16.40;99.90;;;;;;5002123;28;20206;-73
2022/11/09 10:20:14;;;;;;;6.67;1.93;;;16.20;99.90;;;;;;5008988;28;20589;-72
2022/11/09 10:23:05;;;;;;;10.10;2.57;;;16.10;99.90;;;;;;4993743;28;20250;-72
2022/11/09 10:25:34;;;;;;;9.87;2.40;;;16.00;99.90;;;;;;5004549;28;20214;-72
2022/11/09 10:28:09;;;;;;;8.40;2.33;;;15.70;99.90;;;;;;4997194;28;20191;-71
2022/11/09 10:30:34;;;;;;;6.97;2.23;;;15.50;99.90;;;;;;4982598;28;20260;-71
2022/11/09 10:33:15;;;;;;;10.17;2.33;;;15.50;99.90;;;;;;5004983;28;20687;-72
2022/11/09 10:35:57;;;;;;;7.70;2.40;;;15.50;99.90;;;;;;5006641;28;20654;-71
2022/11/09 10:38:28;;;;;;;14.13;7.67;;;15.40;99.90;;;;;;4997132;28;20189;-71
2022/11/09 10:41:07;;;;;;;14.37;2.30;;;15.50;99.90;;;;;;5006008;28;20183;-72
2022/11/09 10:43:33;;;;;;;7.70;2.30;;;15.60;99.90;;;;;;5005418;28;20190;-70
2022/11/09 10:46:04;;;;;;;13.63;5.30;;;15.50;99.90;;;;;;4997551;28;20212;-70
2022/11/09 10:48:36;;;;;;;10.77;2.53;;;15.30;99.90;;;;;;4980846;28;20257;-71
2022/11/09 10:51:02;;;;;;;7.43;2.37;;;15.20;99.90;;;;;;5012928;28;20206;-71
2022/11/09 10:53:30;;;;;;;9.97;3.30;;;15.30;99.90;;;;;;5012849;28;20171;-71
2022/11/09 10:56:16;;;;;;;7.47;2.57;;;15.30;99.90;;;;;;5013238;28;20177;-71
2022/11/09 10:58:50;;;;;;;5.93;2.37;;;15.60;99.90;;;;;;5013053;28;20170;-72
2022/11/09 11:01:21;;;;;;;10.43;2.70;;;15.90;99.90;;;;;;5012973;28;20170;-72
2022/11/09 11:03:54;;;;;;;8.17;2.30;;;16.30;99.90;;;;;;5012649;28;20212;-72
2022/11/09 11:06:20;;;;;;;8.23;2.03;;;16.50;99.90;;;;;;5012415;28;20576;-72
2022/11/09 11:09:09;;;;;;;7.57;2.67;;;16.60;99.90;;;;;;5012608;28;20178;-72
2022/11/09 11:11:36;;;;;;;8.10;2.50;;;16.40;99.90;;;;;;5009763;28;20253;-72
2022/11/09 11:14:14;;;;;;;6.30;2.70;;;16.50;99.90;;;;;;5012968;28;20554;-72
2022/11/09 11:16:41;;;;;;;7.60;2.57;;;16.40;99.90;;;;;;5013200;28;20253;-72
2022/11/09 11:19:25;;;;;;;9.50;3.10;;;16.30;99.90;;;;;;5013169;28;20171;-71
2022/11/09 11:22:18;;;;;;;7.47;2.50;;;16.30;99.90;;;;;;5012805;28;20178;-71
2022/11/09 11:24:56;;;;;;;5.03;2.00;;;16.30;99.90;;;;;;5012849;28;20776;-71
2022/11/09 11:27:35;;;;;;;8.33;2.23;;;16.10;99.90;;;;;;5011751;28;20206;-73
2022/11/09 11:30:03;;;;;;;8.73;2.50;;;15.90;99.90;;;;;;5012804;28;20170;-71
2022/11/09 11:32:29;;;;;;;8.87;2.70;;;15.80;99.90;;;;;;5013085;28;20174;-72
2022/11/09 11:34:55;;;;;;;7.33;2.20;;;15.60;99.90;;;;;;5012979;28;20694;-71
2022/11/09 11:37:43;;;;;;;9.13;2.27;;;15.40;99.90;;;;;;5012901;28;20171;-71
2022/11/09 11:40:28;;;;;;;7.77;2.70;;;15.50;99.90;;;;;;5012770;28;20257;-70
2022/11/09 11:43:12;;;;;;;10.63;2.60;;;15.70;99.90;;;;;;5011835;28;20178;-71
2022/11/09 11:45:48;;;;;;;9.13;2.60;;;15.90;99.90;;;;;;5012850;28;20262;-72
2022/11/09 11:48:16;;;;;;;9.23;2.33;;;15.90;99.90;;;;;;5012155;28;20218;-71
2022/11/09 11:50:50;;;;;;;11.77;2.67;;;16.00;99.90;;;;;;5013116;28;20220;-71
2022/11/09 11:53:39;;;;;;;9.10;2.67;;;15.80;99.90;;;;;;5013819;28;20171;-71
2022/11/09 11:56:37;;;;;;;8.07;2.70;;;15.80;99.90;;;;;;5016394;28;20170;-70
2022/11/09 11:59:37;;;;;;;10.50;5.20;;;15.70;99.90;;;;;;5015431;28;20205;-72
2022/11/09 12:02:39;;;;;;;10.70;3.50;;;15.60;99.90;;;;;;5016368;28;20167;-72
2022/11/09 12:05:24;;;;;;;8.43;2.50;;;15.50;99.90;;;;;;5016117;28;20743;-72
2022/11/09 12:07:59;;;;;;;5.80;2.43;;;15.50;99.90;;;;;;5016353;28;20158;-71
2022/11/09 12:10:31;;;;;;;6.00;2.10;;;15.50;99.90;;;;;;5016484;28;20212;-71
2022/11/09 12:13:25;;;;;;;4.90;2.17;;;15.50;99.90;;;;;;5016060;28;20638;-72
2022/11/09 12:16:01;;;;;;;8.50;2.03;;;15.40;99.90;;;;;;5005346;28;20190;-71
2022/11/09 12:18:41;;;;;;;3.87;1.47;;;15.10;99.90;;;;;;5015758;28;20274;-72
2022/11/09 12:21:27;;;;;;;4.60;1.47;;;14.70;99.90;;;;;;5015537;28;20252;-71
2022/11/09 12:24:03;;;;;;;5.97;3.03;;;14.10;99.90;;;;;;5015765;28;20267;-73
2022/11/09 12:26:51;;;;;;;6.47;2.20;;;13.70;99.90;;;;;;5016106;28;20170;-73
2022/11/09 12:29:35;;;;;;;5.53;2.20;;;13.50;99.90;;;;;;5015094;28;20197;-73
2022/11/09 12:32:19;;;;;;;3.10;1.90;;;13.30;99.90;;;;;;5016053;28;20174;-72
2022/11/09 12:34:56;;;;;;;5.17;2.20;;;13.20;99.90;;;;;;5015528;28;20630;-72
2022/11/09 12:38:00;;;;;;;2.33;1.43;;;13.30;99.90;;;;;;5015572;28;20281;-72
2022/11/09 12:40:31;;;;;;;3.43;1.60;;;13.30;99.90;;;;;;5008967;28;20183;-71
2022/11/09 12:43:16;;;;;;;4.33;1.60;;;13.20;99.90;;;;;;5015914;28;20175;-71
2022/11/09 12:45:43;;;;;;;4.70;2.00;;;13.30;99.90;;;;;;5014516;28;20277;-72
2022/11/09 12:48:29;;;;;;;4.37;2.20;;;13.40;99.90;;;;;;5015783;28;20173;-72
2022/11/09 12:50:58;;;;;;;6.13;2.63;;;13.60;99.90;;;;;;5014879;28;20180;-72
2022/11/09 12:53:37;;;;;;;5.03;2.80;;;13.50;99.90;;;;;;5015192;28;20169;-72
2022/11/09 12:56:14;;;;;;;6.33;2.10;;;13.60;99.90;;;;;;5015686;28;20166;-72
2022/11/09 12:58:39;;;;;;;7.10;2.50;;;13.60;99.90;;;;;;5015245;28;20643;-72